sensor_id;sensor_type;location;lat;lon;timestamp;temperature;humidity
25963;DHT22;13760;52.588;13.406;2024-03-08T00:00:17;0.60;99.90
25963;DHT22;13760;52.588;13.406;2024-03-08T00:02:46;0.50;99.90
25963;DHT22;13760;52.588;13.406;2024-03-08T00:05:12;0.50;99.90
25963;DHT22;13760;52.588;13.406;2024-03-08T00:07:38;0.50;99.90
25963;DHT22;13760;52.588;13.406;2024-03-08T00:10:05;0.50;99.90
25963;DHT22;13760;52.588;13.406;2024-03-08T00:12:31;0.50;99.90
25963;DHT22;13760;52.588;13.406;2024-03-08T00:14:57;0.50;99.90
25963;DHT22;13760;52.588;13.406;2024-03-08T00:17:22;0.50;99.90
25963;DHT22;13760;52.588;13.406;2024-03-08T00:19:51;0.40;99.90
25963;DHT22;13760;52.588;13.406;2024-03-08T00:22:17;0.40;99.90
25963;DHT22;13760;52.588;13.406;2024-03-08T00:24:43;0.40;99.90
25963;DHT22;13760;52.588;13.406;2024-03-08T00:27:09;0.40;99.90
25963;DHT22;13760;52.588;13.406;2024-03-08T00:29:35;0.40;99.90
25963;DHT22;13760;52.588;13.406;2024-03-08T00:32:00;0.40;99.90
25963;DHT22;13760;52.588;13.406;2024-03-08T00:34:26;0.40;99.90
25963;DHT22;13760;52.588;13.406;2024-03-08T00:36:52;0.30;99.90
25963;DHT22;13760;52.588;13.406;2024-03-08T00:39:18;0.30;99.90
25963;DHT22;13760;52.588;13.406;2024-03-08T00:41:45;0.30;99.90
25963;DHT22;13760;52.588;13.406;2024-03-08T00:44:11;0.30;99.90
25963;DHT22;13760;52.588;13.406;2024-03-08T00:46:36;0.30;99.90
25963;DHT22;13760;52.588;13.406;2024-03-08T00:49:02;0.20;99.90
25963;DHT22;13760;52.588;13.406;2024-03-08T00:51:27;0.30;99.90
25963;DHT22;13760;52.588;13.406;2024-03-08T00:53:53;0.20;99.90
25963;DHT22;13760;52.588;13.406;2024-03-08T00:56:18;0.20;99.90
25963;DHT22;13760;52.588;13.406;2024-03-08T00:58:44;0.20;99.90
25963;DHT22;13760;52.588;13.406;2024-03-08T01:01:09;0.20;99.90
25963;DHT22;13760;52.588;13.406;2024-03-08T01:03:36;0.20;99.90
25963;DHT22;13760;52.588;13.406;2024-03-08T01:06:01;0.20;99.90
25963;DHT22;13760;52.588;13.406;2024-03-08T01:08:27;0.20;99.90
25963;DHT22;13760;52.588;13.406;2024-03-08T01:10:53;0.20;99.90
25963;DHT22;13760;52.588;13.406;2024-03-08T01:13:19;0.20;99.90
25963;DHT22;13760;52.588;13.406;2024-03-08T01:15:45;0.20;99.90
25963;DHT22;13760;52.588;13.406;2024-03-08T01:18:11;0.20;99.90
25963;DHT22;13760;52.588;13.406;2024-03-08T01:20:37;0.10;99.90
25963;DHT22;13760;52.588;13.406;2024-03-08T01:23:02;0.10;99.90
25963;DHT22;13760;52.588;13.406;2024-03-08T01:25:28;0.10;99.90
25963;DHT22;13760;52.588;13.406;2024-03-08T01:27:54;0.00;99.90
25963;DHT22;13760;52.588;13.406;2024-03-08T01:30:20;0.10;99.90
25963;DHT22;13760;52.588;13.406;2024-03-08T01:32:45;0.00;99.90
25963;DHT22;13760;52.588;13.406;2024-03-08T01:35:11;0.00;99.90
25963;DHT22;13760;52.588;13.406;2024-03-08T01:37:37;-0.10;99.90
25963;DHT22;13760;52.588;13.406;2024-03-08T01:40:03;-0.10;99.90
25963;DHT22;13760;52.588;13.406;2024-03-08T01:42:29;-0.10;99.90
25963;DHT22;13760;52.588;13.406;2024-03-08T01:44:54;-0.20;99.90
25963;DHT22;13760;52.588;13.406;2024-03-08T01:47:21;-0.20;99.90
25963;DHT22;13760;52.588;13.406;2024-03-08T01:49:51;-0.20;99.90
25963;DHT22;13760;52.588;13.406;2024-03-08T01:52:17;-0.30;99.90
25963;DHT22;13760;52.588;13.406;2024-03-08T01:54:48;-0.30;99.90
25963;DHT22;13760;52.588;13.406;2024-03-08T01:57:13;-0.30;99.90
25963;DHT22;13760;52.588;13.406;2024-03-08T01:59:40;-0.30;99.90
25963;DHT22;13760;52.588;13.406;2024-03-08T02:02:07;-0.30;99.90
25963;DHT22;13760;52.588;13.406;2024-03-08T02:04:34;-0.20;99.90
25963;DHT22;13760;52.588;13.406;2024-03-08T02:07:01;-0.20;99.90
25963;DHT22;13760;52.588;13.406;2024-03-08T02:09:27;-0.20;99.90
25963;DHT22;13760;52.588;13.406;2024-03-08T02:11:53;-0.20;99.90
25963;DHT22;13760;52.588;13.406;2024-03-08T02:14:20;-0.30;99.90
25963;DHT22;13760;52.588;13.406;2024-03-08T02:16:45;-0.30;99.90
25963;DHT22;13760;52.588;13.406;2024-03-08T02:19:11;-0.20;99.90
25963;DHT22;13760;52.588;13.406;2024-03-08T02:21:36;-0.30;99.90
25963;DHT22;13760;52.588;13.406;2024-03-08T02:24:04;-0.20;99.90
25963;DHT22;13760;52.588;13.406;2024-03-08T02:26:29;-0.20;99.90
25963;DHT22;13760;52.588;13.406;2024-03-08T02:28:55;-0.30;99.90
25963;DHT22;13760;52.588;13.406;2024-03-08T02:31:21;-0.30;99.90
25963;DHT22;13760;52.588;13.406;2024-03-08T02:33:47;-0.40;99.90
25963;DHT22;13760;52.588;13.406;2024-03-08T02:36:13;-0.40;99.90
25963;DHT22;13760;52.588;13.406;2024-03-08T02:38:38;-0.50;99.90
25963;DHT22;13760;52.588;13.406;2024-03-08T02:41:06;-0.50;99.90
25963;DHT22;13760;52.588;13.406;2024-03-08T02:43:34;-0.60;99.90
25963;DHT22;13760;52.588;13.406;2024-03-08T02:45:59;-0.60;99.90
25963;DHT22;13760;52.588;13.406;2024-03-08T02:48:25;-0.60;99.90
25963;DHT22;13760;52.588;13.406;2024-03-08T02:50:51;-0.60;99.90
25963;DHT22;13760;52.588;13.406;2024-03-08T02:53:16;-0.60;99.90
25963;DHT22;13760;52.588;13.406;2024-03-08T02:55:44;-0.60;99.90
25963;DHT22;13760;52.588;13.406;2024-03-08T02:58:10;-0.60;99.90
25963;DHT22;13760;52.588;13.406;2024-03-08T03:00:36;-0.60;99.90
25963;DHT22;13760;52.588;13.406;2024-03-08T03:03:02;-0.60;99.90
25963;DHT22;13760;52.588;13.406;2024-03-08T03:05:29;-0.70;99.90
25963;DHT22;13760;52.588;13.406;2024-03-08T03:07:55;-0.70;99.90
25963;DHT22;13760;52.588;13.406;2024-03-08T03:10:21;-0.70;99.90
25963;DHT22;13760;52.588;13.406;2024-03-08T03:12:49;-0.70;99.90
25963;DHT22;13760;52.588;13.406;2024-03-08T03:15:15;-0.70;99.90
25963;DHT22;13760;52.588;13.406;2024-03-08T03:17:48;-0.70;99.90
25963;DHT22;13760;52.588;13.406;2024-03-08T03:20:14;-0.80;99.90
25963;DHT22;13760;52.588;13.406;2024-03-08T03:22:40;-0.80;99.90
25963;DHT22;13760;52.588;13.406;2024-03-08T03:25:07;-0.80;99.90
25963;DHT22;13760;52.588;13.406;2024-03-08T03:27:33;-0.80;99.90
25963;DHT22;13760;52.588;13.406;2024-03-08T03:29:59;-0.80;99.90
25963;DHT22;13760;52.588;13.406;2024-03-08T03:32:44;-0.80;99.90
25963;DHT22;13760;52.588;13.406;2024-03-08T03:35:13;-0.80;99.90
25963;DHT22;13760;52.588;13.406;2024-03-08T03:37:38;-0.90;99.90
25963;DHT22;13760;52.588;13.406;2024-03-08T03:40:07;-0.90;99.90
25963;DHT22;13760;52.588;13.406;2024-03-08T03:42:33;-0.90;99.90
25963;DHT22;13760;52.588;13.406;2024-03-08T03:44:59;-0.90;99.90
25963;DHT22;13760;52.588;13.406;2024-03-08T03:47:25;-1.00;99.90
25963;DHT22;13760;52.588;13.406;2024-03-08T03:49:52;-1.00;99.90
25963;DHT22;13760;52.588;13.406;2024-03-08T03:52:19;-1.10;99.90
25963;DHT22;13760;52.588;13.406;2024-03-08T03:54:45;-1.10;99.90
25963;DHT22;13760;52.588;13.406;2024-03-08T03:57:10;-1.10;99.90
25963;DHT22;13760;52.588;13.406;2024-03-08T03:59:37;-1.10;99.90
25963;DHT22;13760;52.588;13.406;2024-03-08T04:02:03;-1.10;99.90
25963;DHT22;13760;52.588;13.406;2024-03-08T04:04:29;-1.10;99.90
25963;DHT22;13760;52.588;13.406;2024-03-08T04:06:54;-1.10;99.90
25963;DHT22;13760;52.588;13.406;2024-03-08T04:09:20;-1.10;99.90
25963;DHT22;13760;52.588;13.406;2024-03-08T04:11:48;-1.10;99.90
25963;DHT22;13760;52.588;13.406;2024-03-08T04:14:13;-1.10;99.90
25963;DHT22;13760;52.588;13.406;2024-03-08T04:16:39;-1.10;99.90
25963;DHT22;13760;52.588;13.406;2024-03-08T04:19:04;-1.10;99.90
25963;DHT22;13760;52.588;13.406;2024-03-08T04:21:30;-1.10;99.90
25963;DHT22;13760;52.588;13.406;2024-03-08T04:23:56;-1.10;99.90
25963;DHT22;13760;52.588;13.406;2024-03-08T04:26:22;-1.10;99.90
25963;DHT22;13760;52.588;13.406;2024-03-08T04:28:47;-1.20;99.90
25963;DHT22;13760;52.588;13.406;2024-03-08T04:31:13;-1.10;99.90
25963;DHT22;13760;52.588;13.406;2024-03-08T04:33:39;-1.20;99.90
25963;DHT22;13760;52.588;13.406;2024-03-08T04:36:04;-1.20;99.90
25963;DHT22;13760;52.588;13.406;2024-03-08T04:38:30;-1.20;99.90
25963;DHT22;13760;52.588;13.406;2024-03-08T04:40:57;-1.20;99.90
25963;DHT22;13760;52.588;13.406;2024-03-08T04:43:23;-1.20;99.90
25963;DHT22;13760;52.588;13.406;2024-03-08T04:45:52;-1.20;99.90
25963;DHT22;13760;52.588;13.406;2024-03-08T04:48:17;-1.20;99.90
25963;DHT22;13760;52.588;13.406;2024-03-08T04:50:43;-1.20;99.90
25963;DHT22;13760;52.588;13.406;2024-03-08T04:53:10;-1.20;99.90
25963;DHT22;13760;52.588;13.406;2024-03-08T04:55:35;-1.20;99.90
25963;DHT22;13760;52.588;13.406;2024-03-08T04:58:03;-1.20;99.90
25963;DHT22;13760;52.588;13.406;2024-03-08T05:00:29;-1.10;99.90
25963;DHT22;13760;52.588;13.406;2024-03-08T05:02:55;-1.20;99.90
25963;DHT22;13760;52.588;13.406;2024-03-08T05:05:21;-1.20;99.90
25963;DHT22;13760;52.588;13.406;2024-03-08T05:07:48;-1.30;99.90
25963;DHT22;13760;52.588;13.406;2024-03-08T05:10:13;-1.30;99.90
25963;DHT22;13760;52.588;13.406;2024-03-08T05:12:43;-1.30;99.90
25963;DHT22;13760;52.588;13.406;2024-03-08T05:15:08;-1.30;99.90
25963;DHT22;13760;52.588;13.406;2024-03-08T05:17:34;-1.30;99.90
25963;DHT22;13760;52.588;13.406;2024-03-08T05:19:59;-1.20;99.90
25963;DHT22;13760;52.588;13.406;2024-03-08T05:22:25;-1.30;99.90
25963;DHT22;13760;52.588;13.406;2024-03-08T05:24:51;-1.30;99.90
25963;DHT22;13760;52.588;13.406;2024-03-08T05:27:17;-1.30;99.90
25963;DHT22;13760;52.588;13.406;2024-03-08T05:29:42;-1.30;99.90
25963;DHT22;13760;52.588;13.406;2024-03-08T05:32:08;-1.30;99.90
25963;DHT22;13760;52.588;13.406;2024-03-08T05:34:35;-1.30;99.90
25963;DHT22;13760;52.588;13.406;2024-03-08T05:37:00;-1.30;99.90
25963;DHT22;13760;52.588;13.406;2024-03-08T05:39:26;-1.40;99.90
25963;DHT22;13760;52.588;13.406;2024-03-08T05:41:52;-1.40;99.90
25963;DHT22;13760;52.588;13.406;2024-03-08T05:44:18;-1.40;99.90
25963;DHT22;13760;52.588;13.406;2024-03-08T05:46:45;-1.40;99.90
25963;DHT22;13760;52.588;13.406;2024-03-08T05:49:11;-1.40;99.90
25963;DHT22;13760;52.588;13.406;2024-03-08T05:51:38;-1.40;99.90
25963;DHT22;13760;52.588;13.406;2024-03-08T05:54:08;-1.40;99.90
25963;DHT22;13760;52.588;13.406;2024-03-08T05:56:35;-1.40;99.90
25963;DHT22;13760;52.588;13.406;2024-03-08T05:59:01;-1.40;99.90
25963;DHT22;13760;52.588;13.406;2024-03-08T06:01:27;-1.30;99.90
25963;DHT22;13760;52.588;13.406;2024-03-08T06:03:53;-1.30;99.90
25963;DHT22;13760;52.588;13.406;2024-03-08T06:06:21;-1.30;99.90
25963;DHT22;13760;52.588;13.406;2024-03-08T06:08:47;-1.30;99.90
25963;DHT22;13760;52.588;13.406;2024-03-08T06:11:15;-1.30;99.90
25963;DHT22;13760;52.588;13.406;2024-03-08T06:13:40;-1.30;99.90
25963;DHT22;13760;52.588;13.406;2024-03-08T06:16:06;-1.30;99.90
25963;DHT22;13760;52.588;13.406;2024-03-08T06:18:34;-1.30;99.90
25963;DHT22;13760;52.588;13.406;2024-03-08T06:21:03;-1.30;99.90
25963;DHT22;13760;52.588;13.406;2024-03-08T06:23:30;-1.30;99.90
25963;DHT22;13760;52.588;13.406;2024-03-08T06:25:56;-1.20;99.90
25963;DHT22;13760;52.588;13.406;2024-03-08T06:28:23;-1.20;99.90
25963;DHT22;13760;52.588;13.406;2024-03-08T06:30:48;-1.10;99.90
25963;DHT22;13760;52.588;13.406;2024-03-08T06:33:16;-1.10;99.90
25963;DHT22;13760;52.588;13.406;2024-03-08T06:35:41;-1.10;99.90
25963;DHT22;13760;52.588;13.406;2024-03-08T06:38:07;-1.00;99.90
25963;DHT22;13760;52.588;13.406;2024-03-08T06:40:32;-1.00;99.90
25963;DHT22;13760;52.588;13.406;2024-03-08T06:42:58;-1.00;99.90
25963;DHT22;13760;52.588;13.406;2024-03-08T06:45:24;-0.90;99.90
25963;DHT22;13760;52.588;13.406;2024-03-08T06:47:51;-0.80;99.90
25963;DHT22;13760;52.588;13.406;2024-03-08T06:50:17;-0.70;99.90
25963;DHT22;13760;52.588;13.406;2024-03-08T06:52:42;-0.60;99.90
25963;DHT22;13760;52.588;13.406;2024-03-08T06:55:09;-0.60;99.90
25963;DHT22;13760;52.588;13.406;2024-03-08T06:57:39;-0.50;99.90
25963;DHT22;13760;52.588;13.406;2024-03-08T07:00:07;-0.40;99.90
25963;DHT22;13760;52.588;13.406;2024-03-08T07:02:35;-0.30;99.90
25963;DHT22;13760;52.588;13.406;2024-03-08T07:05:01;-0.20;99.90
25963;DHT22;13760;52.588;13.406;2024-03-08T07:07:27;-0.10;99.90
25963;DHT22;13760;52.588;13.406;2024-03-08T07:09:52;-0.10;99.90
25963;DHT22;13760;52.588;13.406;2024-03-08T07:12:18;0.00;99.90
25963;DHT22;13760;52.588;13.406;2024-03-08T07:14:43;0.10;99.90
25963;DHT22;13760;52.588;13.406;2024-03-08T07:17:11;0.20;99.90
25963;DHT22;13760;52.588;13.406;2024-03-08T07:19:37;0.30;99.90
25963;DHT22;13760;52.588;13.406;2024-03-08T07:22:04;0.40;99.90
25963;DHT22;13760;52.588;13.406;2024-03-08T07:24:29;0.50;99.90
25963;DHT22;13760;52.588;13.406;2024-03-08T07:27:13;0.50;99.90
25963;DHT22;13760;52.588;13.406;2024-03-08T07:29:39;0.60;99.90
25963;DHT22;13760;52.588;13.406;2024-03-08T07:32:04;0.70;99.90
25963;DHT22;13760;52.588;13.406;2024-03-08T07:34:54;0.80;99.90
25963;DHT22;13760;52.588;13.406;2024-03-08T07:37:29;1.00;99.90
25963;DHT22;13760;52.588;13.406;2024-03-08T07:39:54;1.10;99.90
25963;DHT22;13760;52.588;13.406;2024-03-08T07:42:20;1.20;99.90
25963;DHT22;13760;52.588;13.406;2024-03-08T07:44:50;1.30;99.90
25963;DHT22;13760;52.588;13.406;2024-03-08T07:47:17;1.40;99.90
25963;DHT22;13760;52.588;13.406;2024-03-08T07:49:43;1.60;99.90
25963;DHT22;13760;52.588;13.406;2024-03-08T07:52:09;1.70;99.90
25963;DHT22;13760;52.588;13.406;2024-03-08T07:54:35;1.80;99.90
25963;DHT22;13760;52.588;13.406;2024-03-08T07:57:00;2.00;99.90
25963;DHT22;13760;52.588;13.406;2024-03-08T07:59:28;2.10;99.90
25963;DHT22;13760;52.588;13.406;2024-03-08T08:01:54;2.20;99.90
25963;DHT22;13760;52.588;13.406;2024-03-08T08:04:20;2.40;99.90
25963;DHT22;13760;52.588;13.406;2024-03-08T08:06:50;2.60;99.90
25963;DHT22;13760;52.588;13.406;2024-03-08T08:09:16;2.80;99.90
25963;DHT22;13760;52.588;13.406;2024-03-08T08:11:54;3.00;99.90
25963;DHT22;13760;52.588;13.406;2024-03-08T08:14:20;3.20;99.90
25963;DHT22;13760;52.588;13.406;2024-03-08T08:16:47;3.30;99.90
25963;DHT22;13760;52.588;13.406;2024-03-08T08:19:14;3.50;99.90
25963;DHT22;13760;52.588;13.406;2024-03-08T08:21:41;3.60;99.90
25963;DHT22;13760;52.588;13.406;2024-03-08T08:24:06;3.80;99.90
25963;DHT22;13760;52.588;13.406;2024-03-08T08:26:32;3.90;99.90
25963;DHT22;13760;52.588;13.406;2024-03-08T08:28:59;4.10;99.90
25963;DHT22;13760;52.588;13.406;2024-03-08T08:31:25;4.20;99.90
25963;DHT22;13760;52.588;13.406;2024-03-08T08:33:51;4.30;99.90
25963;DHT22;13760;52.588;13.406;2024-03-08T08:36:23;4.40;99.90
25963;DHT22;13760;52.588;13.406;2024-03-08T08:38:48;4.60;99.90
25963;DHT22;13760;52.588;13.406;2024-03-08T08:41:14;4.70;99.90
25963;DHT22;13760;52.588;13.406;2024-03-08T08:43:41;4.80;99.90
25963;DHT22;13760;52.588;13.406;2024-03-08T08:46:10;4.90;99.90
25963;DHT22;13760;52.588;13.406;2024-03-08T08:48:39;5.00;99.90
25963;DHT22;13760;52.588;13.406;2024-03-08T08:51:09;5.10;99.90
25963;DHT22;13760;52.588;13.406;2024-03-08T08:53:38;5.20;99.90
25963;DHT22;13760;52.588;13.406;2024-03-08T08:56:04;5.20;99.90
25963;DHT22;13760;52.588;13.406;2024-03-08T08:58:29;5.30;99.90
25963;DHT22;13760;52.588;13.406;2024-03-08T09:00:55;5.40;99.90
25963;DHT22;13760;52.588;13.406;2024-03-08T09:03:20;5.50;99.90
25963;DHT22;13760;52.588;13.406;2024-03-08T09:05:46;5.60;99.90
25963;DHT22;13760;52.588;13.406;2024-03-08T09:08:11;5.70;99.90
25963;DHT22;13760;52.588;13.406;2024-03-08T09:10:38;5.80;99.90
25963;DHT22;13760;52.588;13.406;2024-03-08T09:13:04;5.80;99.90
25963;DHT22;13760;52.588;13.406;2024-03-08T09:15:29;5.80;99.90
25963;DHT22;13760;52.588;13.406;2024-03-08T09:17:55;5.90;99.90
25963;DHT22;13760;52.588;13.406;2024-03-08T09:20:21;6.00;99.90
25963;DHT22;13760;52.588;13.406;2024-03-08T09:22:46;6.00;99.90
25963;DHT22;13760;52.588;13.406;2024-03-08T09:25:12;6.00;99.90
25963;DHT22;13760;52.588;13.406;2024-03-08T09:27:37;6.10;99.90
25963;DHT22;13760;52.588;13.406;2024-03-08T09:30:05;6.20;99.90
25963;DHT22;13760;52.588;13.406;2024-03-08T09:32:32;6.20;99.90
25963;DHT22;13760;52.588;13.406;2024-03-08T09:34:57;6.30;99.90
25963;DHT22;13760;52.588;13.406;2024-03-08T09:37:23;6.20;99.90
25963;DHT22;13760;52.588;13.406;2024-03-08T09:39:48;6.30;99.90
25963;DHT22;13760;52.588;13.406;2024-03-08T09:42:15;6.30;99.90
25963;DHT22;13760;52.588;13.406;2024-03-08T09:44:45;6.40;99.90
25963;DHT22;13760;52.588;13.406;2024-03-08T09:47:14;6.40;99.90
25963;DHT22;13760;52.588;13.406;2024-03-08T09:49:40;6.40;99.90
25963;DHT22;13760;52.588;13.406;2024-03-08T09:52:07;6.50;99.90
25963;DHT22;13760;52.588;13.406;2024-03-08T09:54:33;6.60;99.90
25963;DHT22;13760;52.588;13.406;2024-03-08T09:56:59;6.60;99.90
25963;DHT22;13760;52.588;13.406;2024-03-08T09:59:25;6.60;99.90
25963;DHT22;13760;52.588;13.406;2024-03-08T10:01:53;6.70;99.90
25963;DHT22;13760;52.588;13.406;2024-03-08T10:04:22;6.70;99.90
25963;DHT22;13760;52.588;13.406;2024-03-08T10:06:53;6.80;99.90
25963;DHT22;13760;52.588;13.406;2024-03-08T10:09:19;6.90;99.90
25963;DHT22;13760;52.588;13.406;2024-03-08T10:11:46;6.90;99.90
25963;DHT22;13760;52.588;13.406;2024-03-08T10:14:12;6.90;99.90
25963;DHT22;13760;52.588;13.406;2024-03-08T10:16:38;7.00;99.90
25963;DHT22;13760;52.588;13.406;2024-03-08T10:19:04;7.00;99.90
25963;DHT22;13760;52.588;13.406;2024-03-08T10:21:32;7.00;99.90
25963;DHT22;13760;52.588;13.406;2024-03-08T10:23:58;7.10;99.90
25963;DHT22;13760;52.588;13.406;2024-03-08T10:26:24;7.10;99.90
25963;DHT22;13760;52.588;13.406;2024-03-08T10:28:51;7.20;99.90
25963;DHT22;13760;52.588;13.406;2024-03-08T10:31:19;7.30;99.90
25963;DHT22;13760;52.588;13.406;2024-03-08T10:33:45;7.30;99.90
25963;DHT22;13760;52.588;13.406;2024-03-08T10:36:14;7.40;99.90
25963;DHT22;13760;52.588;13.406;2024-03-08T10:38:42;7.40;99.90
25963;DHT22;13760;52.588;13.406;2024-03-08T10:41:14;7.50;99.90
25963;DHT22;13760;52.588;13.406;2024-03-08T10:47:03;7.70;99.90
25963;DHT22;13760;52.588;13.406;2024-03-08T10:50:13;7.80;99.50
25963;DHT22;13760;52.588;13.406;2024-03-08T10:52:38;7.80;98.80
25963;DHT22;13760;52.588;13.406;2024-03-08T10:55:05;7.90;99.30
25963;DHT22;13760;52.588;13.406;2024-03-08T10:57:38;8.00;98.50
25963;DHT22;13760;52.588;13.406;2024-03-08T11:00:06;8.20;97.50
25963;DHT22;13760;52.588;13.406;2024-03-08T11:02:35;8.30;98.00
25963;DHT22;13760;52.588;13.406;2024-03-08T11:05:03;8.40;98.20
25963;DHT22;13760;52.588;13.406;2024-03-08T11:07:33;8.60;96.50
25963;DHT22;13760;52.588;13.406;2024-03-08T11:10:02;8.60;95.20
25963;DHT22;13760;52.588;13.406;2024-03-08T11:12:38;8.70;94.70
25963;DHT22;13760;52.588;13.406;2024-03-08T11:15:12;8.80;94.40
25963;DHT22;13760;52.588;13.406;2024-03-08T11:20:10;8.80;92.70
25963;DHT22;13760;52.588;13.406;2024-03-08T11:22:41;8.90;92.30
25963;DHT22;13760;52.588;13.406;2024-03-08T11:25:37;8.90;90.40
25963;DHT22;13760;52.588;13.406;2024-03-08T11:28:19;9.00;90.60
25963;DHT22;13760;52.588;13.406;2024-03-08T11:33:40;9.20;89.00
25963;DHT22;13760;52.588;13.406;2024-03-08T11:36:23;9.30;87.30
25963;DHT22;13760;52.588;13.406;2024-03-08T11:38:52;9.40;84.70
25963;DHT22;13760;52.588;13.406;2024-03-08T11:41:22;9.40;83.10
25963;DHT22;13760;52.588;13.406;2024-03-08T11:43:49;9.50;85.00
25963;DHT22;13760;52.588;13.406;2024-03-08T11:46:16;9.60;82.50
25963;DHT22;13760;52.588;13.406;2024-03-08T11:48:43;9.70;85.70
25963;DHT22;13760;52.588;13.406;2024-03-08T11:51:12;9.80;85.20
25963;DHT22;13760;52.588;13.406;2024-03-08T11:53:39;9.80;86.00
25963;DHT22;13760;52.588;13.406;2024-03-08T11:56:16;9.90;84.90
25963;DHT22;13760;52.588;13.406;2024-03-08T11:58:55;9.90;81.50
25963;DHT22;13760;52.588;13.406;2024-03-08T12:01:24;9.80;81.40
25963;DHT22;13760;52.588;13.406;2024-03-08T12:03:56;9.60;79.80
25963;DHT22;13760;52.588;13.406;2024-03-08T12:06:24;9.60;79.60
25963;DHT22;13760;52.588;13.406;2024-03-08T12:08:50;9.70;81.40
25963;DHT22;13760;52.588;13.406;2024-03-08T12:11:17;10.00;81.00
25963;DHT22;13760;52.588;13.406;2024-03-08T12:13:44;10.00;77.80
25963;DHT22;13760;52.588;13.406;2024-03-08T12:16:12;10.20;76.50
25963;DHT22;13760;52.588;13.406;2024-03-08T12:18:39;10.30;75.10
25963;DHT22;13760;52.588;13.406;2024-03-08T12:21:07;10.20;74.80
25963;DHT22;13760;52.588;13.406;2024-03-08T12:23:37;10.20;74.80
25963;DHT22;13760;52.588;13.406;2024-03-08T12:26:15;10.20;75.50
25963;DHT22;13760;52.588;13.406;2024-03-08T12:28:42;10.30;75.10
25963;DHT22;13760;52.588;13.406;2024-03-08T12:31:11;10.40;76.50
25963;DHT22;13760;52.588;13.406;2024-03-08T12:34:00;10.50;74.40
25963;DHT22;13760;52.588;13.406;2024-03-08T12:36:25;10.50;71.40
25963;DHT22;13760;52.588;13.406;2024-03-08T12:38:53;10.50;71.50
25963;DHT22;13760;52.588;13.406;2024-03-08T12:41:20;10.70;72.50
25963;DHT22;13760;52.588;13.406;2024-03-08T12:43:46;10.90;71.40
25963;DHT22;13760;52.588;13.406;2024-03-08T12:46:19;11.00;64.90
25963;DHT22;13760;52.588;13.406;2024-03-08T12:48:52;11.00;62.30
25963;DHT22;13760;52.588;13.406;2024-03-08T12:51:22;11.10;63.80
25963;DHT22;13760;52.588;13.406;2024-03-08T12:53:47;11.10;64.50
25963;DHT22;13760;52.588;13.406;2024-03-08T12:56:20;11.10;64.00
25963;DHT22;13760;52.588;13.406;2024-03-08T12:58:53;11.10;62.90
25963;DHT22;13760;52.588;13.406;2024-03-08T13:01:19;11.10;64.50
25963;DHT22;13760;52.588;13.406;2024-03-08T13:03:44;11.20;64.10
25963;DHT22;13760;52.588;13.406;2024-03-08T13:06:11;11.20;61.30
25963;DHT22;13760;52.588;13.406;2024-03-08T13:08:37;11.20;59.50
25963;DHT22;13760;52.588;13.406;2024-03-08T13:11:09;11.20;60.40
25963;DHT22;13760;52.588;13.406;2024-03-08T13:13:37;11.10;60.60
25963;DHT22;13760;52.588;13.406;2024-03-08T13:16:06;10.90;61.90
25963;DHT22;13760;52.588;13.406;2024-03-08T13:18:35;10.90;64.10
25963;DHT22;13760;52.588;13.406;2024-03-08T13:21:10;11.00;63.80
25963;DHT22;13760;52.588;13.406;2024-03-08T13:23:41;11.10;64.20
25963;DHT22;13760;52.588;13.406;2024-03-08T13:26:12;11.10;62.20
25963;DHT22;13760;52.588;13.406;2024-03-08T13:28:42;11.00;63.00
25963;DHT22;13760;52.588;13.406;2024-03-08T13:31:08;10.90;61.80
25963;DHT22;13760;52.588;13.406;2024-03-08T13:33:38;10.80;62.70
25963;DHT22;13760;52.588;13.406;2024-03-08T13:36:05;11.00;62.90
25963;DHT22;13760;52.588;13.406;2024-03-08T13:38:32;11.10;64.50
25963;DHT22;13760;52.588;13.406;2024-03-08T13:41:04;11.30;63.80
25963;DHT22;13760;52.588;13.406;2024-03-08T13:43:36;11.40;62.10
25963;DHT22;13760;52.588;13.406;2024-03-08T13:46:03;11.50;62.50
25963;DHT22;13760;52.588;13.406;2024-03-08T13:48:33;11.50;61.50
25963;DHT22;13760;52.588;13.406;2024-03-08T13:50:59;11.40;62.00
25963;DHT22;13760;52.588;13.406;2024-03-08T13:53:25;11.40;65.00
25963;DHT22;13760;52.588;13.406;2024-03-08T13:55:51;11.30;62.30
25963;DHT22;13760;52.588;13.406;2024-03-08T13:58:17;11.30;64.20
25963;DHT22;13760;52.588;13.406;2024-03-08T14:00:42;11.00;62.30
25963;DHT22;13760;52.588;13.406;2024-03-08T14:03:11;10.90;64.00
25963;DHT22;13760;52.588;13.406;2024-03-08T14:05:41;11.00;63.60
25963;DHT22;13760;52.588;13.406;2024-03-08T14:08:08;10.70;63.70
25963;DHT22;13760;52.588;13.406;2024-03-08T14:10:34;10.50;65.30
25963;DHT22;13760;52.588;13.406;2024-03-08T14:13:02;10.50;65.60
25963;DHT22;13760;52.588;13.406;2024-03-08T14:15:31;10.50;66.90
25963;DHT22;13760;52.588;13.406;2024-03-08T14:17:57;10.50;67.30
25963;DHT22;13760;52.588;13.406;2024-03-08T14:20:23;10.60;65.70
25963;DHT22;13760;52.588;13.406;2024-03-08T14:22:55;10.50;66.00
25963;DHT22;13760;52.588;13.406;2024-03-08T14:25:21;10.50;66.40
25963;DHT22;13760;52.588;13.406;2024-03-08T14:27:49;10.40;66.20
25963;DHT22;13760;52.588;13.406;2024-03-08T14:30:15;10.30;65.20
25963;DHT22;13760;52.588;13.406;2024-03-08T14:32:58;10.20;66.80
25963;DHT22;13760;52.588;13.406;2024-03-08T14:35:23;10.00;67.00
25963;DHT22;13760;52.588;13.406;2024-03-08T14:37:50;9.80;65.20
25963;DHT22;13760;52.588;13.406;2024-03-08T14:40:17;9.70;66.60
25963;DHT22;13760;52.588;13.406;2024-03-08T14:42:48;9.70;66.70
25963;DHT22;13760;52.588;13.406;2024-03-08T14:45:15;9.60;66.90
25963;DHT22;13760;52.588;13.406;2024-03-08T14:47:41;9.60;66.60
25963;DHT22;13760;52.588;13.406;2024-03-08T14:50:08;9.60;67.10
25963;DHT22;13760;52.588;13.406;2024-03-08T14:52:35;9.50;67.30
25963;DHT22;13760;52.588;13.406;2024-03-08T14:55:04;9.50;68.20
25963;DHT22;13760;52.588;13.406;2024-03-08T14:57:29;9.50;67.30
25963;DHT22;13760;52.588;13.406;2024-03-08T14:59:58;9.40;67.00
25963;DHT22;13760;52.588;13.406;2024-03-08T15:02:31;9.40;67.50
25963;DHT22;13760;52.588;13.406;2024-03-08T15:04:57;9.40;67.70
25963;DHT22;13760;52.588;13.406;2024-03-08T15:07:24;9.30;69.10
25963;DHT22;13760;52.588;13.406;2024-03-08T15:10:07;9.30;69.60
25963;DHT22;13760;52.588;13.406;2024-03-08T15:12:57;9.30;68.60
25963;DHT22;13760;52.588;13.406;2024-03-08T15:15:25;9.20;69.60
25963;DHT22;13760;52.588;13.406;2024-03-08T15:17:51;9.20;70.10
25963;DHT22;13760;52.588;13.406;2024-03-08T15:20:19;9.10;69.80
25963;DHT22;13760;52.588;13.406;2024-03-08T15:22:54;9.10;71.00
25963;DHT22;13760;52.588;13.406;2024-03-08T15:25:23;9.10;70.70
25963;DHT22;13760;52.588;13.406;2024-03-08T15:27:54;9.10;72.10
25963;DHT22;13760;52.588;13.406;2024-03-08T15:30:24;9.00;71.00
25963;DHT22;13760;52.588;13.406;2024-03-08T15:32:52;9.00;72.60